Time;durP1;ratioP1;P1;durP2;ratioP2;P2;SDS_P1;SDS_P2;PMS_P1;PMS_P2;Temp;Humidity;BMP_temperature;BMP_pressure;BME280_temperature;BME280_humidity;BME280_pressure;Samples;Min_cycle;Max_cycle;Signal;HPM_P1;HPM_P2
2021/12/04 00:01:05;;;;;;;11.43;9.73;;;;;;;;;;4994547;28;20554;-71
2021/12/04 00:03:31;;;;;;;10.10;8.80;;;;;;;;;;5011932;28;20194;-71
2021/12/04 00:06:02;;;;;;;12.00;9.87;;;;;;;;;;5001725;28;20194;-71
2021/12/04 00:08:28;;;;;;;12.33;10.20;;;;;;;;;;5011635;28;20222;-71
2021/12/04 00:10:54;;;;;;;11.50;9.70;;;;;;;;;;4999828;28;20205;-71
2021/12/04 00:13:19;;;;;;;11.77;10.20;;;;;;;;;;5009473;28;20623;-71
2021/12/04 00:15:45;;;;;;;11.90;9.80;;;;;;;;;;4997784;28;20234;-71
2021/12/04 00:18:10;;;;;;;13.23;10.10;;;;;;;;;;5015803;28;20641;-71
2021/12/04 00:20:37;;;;;;;14.57;11.23;;;;;;;;;;5009463;28;20643;-71
2021/12/04 00:23:02;;;;;;;12.83;11.27;;;;;;;;;;5000322;28;20217;-71
2021/12/04 00:25:28;;;;;;;12.47;10.30;;;;;;;;;;5009898;28;20187;-72
2021/12/04 00:27:54;;;;;;;14.07;10.43;;;;;;;;;;5001575;28;20211;-72
2021/12/04 00:30:19;;;;;;;13.47;10.40;;;;;;;;;;5013939;28;20194;-72
2021/12/04 00:32:55;;;;;;;12.60;10.50;;;;;;;;;;4999165;28;20195;-72
2021/12/04 00:35:33;;;;;;;13.10;10.70;;;;;;;;;;5008963;28;20544;-72
2021/12/04 00:49:04;;;;;;;13.47;10.73;;;;;;;;;;5001052;28;20257;-72
2021/12/04 00:51:33;;;;;;;11.77;9.87;;;;;;;;;;5003850;28;20218;-72
2021/12/04 00:53:58;;;;;;;14.37;10.80;;;;;;;;;;5001131;28;20607;-72
2021/12/04 00:56:24;;;;;;;14.27;10.60;;;;;;;;;;5007942;28;20264;-72
2021/12/04 00:58:49;;;;;;;14.10;9.57;;;;;;;;;;5000849;28;20195;-72
2021/12/04 01:01:16;;;;;;;11.90;9.27;;;;;;;;;;5008288;28;20205;-72
2021/12/04 01:03:41;;;;;;;10.77;9.50;;;;;;;;;;5000618;28;20183;-72
2021/12/04 01:06:07;;;;;;;11.43;9.37;;;;;;;;;;5006373;28;20216;-72
2021/12/04 01:08:32;;;;;;;12.63;10.03;;;;;;;;;;4997236;28;20237;-71
2021/12/04 01:10:58;;;;;;;15.23;11.43;;;;;;;;;;5007592;28;20195;-72
2021/12/04 01:13:23;;;;;;;12.83;10.40;;;;;;;;;;5008454;28;20194;-72
2021/12/04 01:15:48;;;;;;;13.37;10.23;;;;;;;;;;4997537;28;20242;-72
2021/12/04 01:18:15;;;;;;;13.03;10.63;;;;;;;;;;5012664;28;20199;-71
2021/12/04 01:20:40;;;;;;;12.57;10.70;;;;;;;;;;4999569;28;20530;-71
2021/12/04 01:23:07;;;;;;;13.13;10.40;;;;;;;;;;5009197;28;20182;-72
2021/12/04 01:25:34;;;;;;;13.57;10.97;;;;;;;;;;4998835;28;20187;-72
2021/12/04 01:28:00;;;;;;;12.67;9.70;;;;;;;;;;5011706;28;20280;-72
2021/12/04 01:30:25;;;;;;;13.63;10.77;;;;;;;;;;5000782;28;20194;-71
2021/12/04 01:32:50;;;;;;;13.63;10.80;;;;;;;;;;5008499;28;20213;-71
2021/12/04 01:35:16;;;;;;;13.90;11.20;;;;;;;;;;4999389;28;20182;-72
2021/12/04 01:37:41;;;;;;;13.17;10.90;;;;;;;;;;5001050;28;20218;-71
2021/12/04 01:40:07;;;;;;;17.93;11.53;;;;;;;;;;4998132;28;20185;-72
2021/12/04 01:42:35;;;;;;;12.27;10.47;;;;;;;;;;5003479;28;20834;-71
2021/12/04 01:45:02;;;;;;;15.93;11.20;;;;;;;;;;5008072;28;20182;-71
2021/12/04 01:47:27;;;;;;;12.83;10.80;;;;;;;;;;5000770;28;20236;-71
2021/12/04 01:49:54;;;;;;;13.23;10.50;;;;;;;;;;5002247;28;20231;-71
2021/12/04 01:52:20;;;;;;;16.87;11.83;;;;;;;;;;5000593;28;20680;-71
2021/12/04 01:54:46;;;;;;;15.03;11.77;;;;;;;;;;5013771;28;20273;-71
2021/12/04 01:57:16;;;;;;;16.80;12.40;;;;;;;;;;4997711;28;20190;-72
2021/12/04 01:59:43;;;;;;;18.40;11.60;;;;;;;;;;5006289;28;20179;-72
2021/12/04 02:02:08;;;;;;;16.03;12.60;;;;;;;;;;4998480;28;20217;-72
2021/12/04 02:04:34;;;;;;;16.37;12.40;;;;;;;;;;5004423;28;20180;-73
2021/12/04 02:07:04;;;;;;;17.30;13.10;;;;;;;;;;4996135;28;20251;-73
2021/12/04 02:09:31;;;;;;;19.10;13.00;;;;;;;;;;5004711;28;20212;-72
2021/12/04 02:11:56;;;;;;;18.40;12.57;;;;;;;;;;4997218;28;23860;-73
2021/12/04 02:14:22;;;;;;;16.70;12.37;;;;;;;;;;5011594;28;20178;-73
2021/12/04 02:16:47;;;;;;;16.27;12.30;;;;;;;;;;4999236;28;20227;-73
2021/12/04 02:19:15;;;;;;;16.93;11.97;;;;;;;;;;5004409;28;20194;-73
2021/12/04 02:21:41;;;;;;;18.33;12.57;;;;;;;;;;5006620;28;20245;-73
2021/12/04 02:24:06;;;;;;;14.97;11.80;;;;;;;;;;5001144;28;20243;-73
2021/12/04 02:26:32;;;;;;;17.23;12.70;;;;;;;;;;5005742;28;20569;-72
2021/12/04 02:28:58;;;;;;;17.33;12.53;;;;;;;;;;4997121;28;20729;-73
2021/12/04 02:31:24;;;;;;;17.30;12.47;;;;;;;;;;5007913;28;20265;-72
2021/12/04 02:33:50;;;;;;;16.30;12.50;;;;;;;;;;5000499;28;20195;-73
2021/12/04 02:36:15;;;;;;;15.03;11.00;;;;;;;;;;5007946;28;20186;-73
2021/12/04 02:38:41;;;;;;;16.23;11.33;;;;;;;;;;5005658;28;20249;-72
2021/12/04 02:41:08;;;;;;;13.97;11.27;;;;;;;;;;5003847;28;20577;-72
2021/12/04 02:43:35;;;;;;;15.47;11.40;;;;;;;;;;4991261;28;20658;-72
2021/12/04 02:46:00;;;;;;;15.77;12.30;;;;;;;;;;5008319;28;20194;-72
2021/12/04 02:48:26;;;;;;;17.27;12.67;;;;;;;;;;5005278;28;20205;-72
2021/12/04 02:50:51;;;;;;;13.80;10.83;;;;;;;;;;5000465;28;20265;-73
2021/12/04 02:53:17;;;;;;;16.70;12.43;;;;;;;;;;5007148;28;20182;-72
2021/12/04 02:55:43;;;;;;;12.87;10.80;;;;;;;;;;4996667;28;20534;-72
2021/12/04 02:58:08;;;;;;;14.77;11.67;;;;;;;;;;5006675;28;20549;-73
2021/12/04 03:00:34;;;;;;;14.53;11.87;;;;;;;;;;4998952;28;20276;-72
2021/12/04 03:03:00;;;;;;;15.43;11.77;;;;;;;;;;5006804;28;20353;-72
2021/12/04 03:05:29;;;;;;;14.73;11.97;;;;;;;;;;5001943;28;20198;-73
2021/12/04 03:07:57;;;;;;;17.00;12.10;;;;;;;;;;5003411;28;20369;-73
2021/12/04 03:10:23;;;;;;;16.43;12.37;;;;;;;;;;4993769;28;20639;-73
2021/12/04 03:12:48;;;;;;;14.70;11.80;;;;;;;;;;5007950;28;20247;-73
2021/12/04 03:15:14;;;;;;;15.07;12.20;;;;;;;;;;4993724;28;20202;-72
2021/12/04 03:17:40;;;;;;;18.03;12.53;;;;;;;;;;5003762;28;20255;-72
2021/12/04 03:20:06;;;;;;;15.37;11.80;;;;;;;;;;5001225;28;20210;-72
2021/12/04 03:22:32;;;;;;;15.80;12.37;;;;;;;;;;5003282;28;20187;-71
2021/12/04 03:24:58;;;;;;;13.57;10.83;;;;;;;;;;5013640;28;20569;-71
2021/12/04 03:27:26;;;;;;;15.00;12.27;;;;;;;;;;4996094;28;20229;-71
2021/12/04 03:29:58;;;;;;;15.03;11.83;;;;;;;;;;5008556;28;20217;-71
2021/12/04 03:40:00;;;;;;;16.57;11.10;;;;;;;;;;5007411;28;20657;-71
2021/12/04 03:40:57;;;;;;;14.10;10.37;;;;;;;;;;5008448;28;20532;-71
2021/12/04 03:43:22;;;;;;;13.37;10.50;;;;;;;;;;4994441;28;20223;-71
2021/12/04 03:45:53;;;;;;;12.90;10.07;;;;;;;;;;5000497;28;20226;-71
2021/12/04 03:48:50;;;;;;;15.73;10.60;;;;;;;;;;4994598;28;20214;-71
2021/12/04 03:51:14;;;;;;;12.60;10.67;;;;;;;;;;5004984;28;20199;-71
2021/12/04 03:53:39;;;;;;;16.40;11.53;;;;;;;;;;4996231;28;20278;-71
2021/12/04 03:56:05;;;;;;;16.47;10.80;;;;;;;;;;5006668;28;20206;-71
2021/12/04 03:58:31;;;;;;;14.53;10.57;;;;;;;;;;4998344;28;20639;-71
2021/12/04 04:00:56;;;;;;;15.43;11.23;;;;;;;;;;5005174;28;20191;-71
2021/12/04 04:03:24;;;;;;;16.47;11.50;;;;;;;;;;5002791;28;20562;-71
2021/12/04 04:05:50;;;;;;;16.10;11.67;;;;;;;;;;5010851;28;20229;-71
2021/12/04 04:08:16;;;;;;;17.53;12.80;;;;;;;;;;5001040;28;20243;-70
2021/12/04 04:10:43;;;;;;;17.37;11.37;;;;;;;;;;5003617;28;20215;-70
2021/12/04 04:13:11;;;;;;;15.50;11.00;;;;;;;;;;4989077;28;20197;-70
2021/12/04 04:15:37;;;;;;;14.53;11.03;;;;;;;;;;5001566;28;20250;-70
2021/12/04 04:18:03;;;;;;;15.03;11.80;;;;;;;;;;4998509;28;20175;-71
2021/12/04 04:20:29;;;;;;;19.77;12.27;;;;;;;;;;5003598;28;20210;-71
2021/12/04 04:22:54;;;;;;;16.60;12.50;;;;;;;;;;5005141;28;20673;-71
2021/12/04 04:25:19;;;;;;;19.90;12.17;;;;;;;;;;4990440;28;20261;-71
2021/12/04 04:27:45;;;;;;;16.53;11.83;;;;;;;;;;5018862;28;20202;-71
2021/12/04 04:30:15;;;;;;;17.63;11.83;;;;;;;;;;5000374;28;20286;-71
2021/12/04 04:32:41;;;;;;;19.80;12.53;;;;;;;;;;5004998;28;20236;-71
2021/12/04 04:35:13;;;;;;;17.30;12.60;;;;;;;;;;4999203;28;20187;-71
2021/12/04 04:37:48;;;;;;;16.57;12.03;;;;;;;;;;5004926;28;20282;-71
2021/12/04 04:40:43;;;;;;;17.83;12.23;;;;;;;;;;4994089;28;20330;-71
2021/12/04 04:59:48;;;;;;;17.63;13.07;;;;;;;;;;5006758;28;20200;-71
2021/12/04 05:13:21;;;;;;;21.17;12.63;;;;;;;;;;5011607;28;20623;-71
2021/12/04 05:20:52;;;;;;;21.87;14.00;;;;;;;;;;5001954;28;20210;-71
2021/12/04 05:23:17;;;;;;;22.60;13.97;;;;;;;;;;5013284;28;20668;-71
2021/12/04 05:25:43;;;;;;;20.53;13.00;;;;;;;;;;5006932;28;20190;-71
2021/12/04 05:28:08;;;;;;;21.10;13.17;;;;;;;;;;4995787;28;20207;-71
2021/12/04 05:30:35;;;;;;;20.87;14.07;;;;;;;;;;5008519;28;20210;-69
2021/12/04 05:33:01;;;;;;;20.40;13.80;;;;;;;;;;5000867;28;20187;-71
2021/12/04 05:35:26;;;;;;;19.90;13.10;;;;;;;;;;5003661;28;20611;-69
2021/12/04 05:37:52;;;;;;;19.70;12.43;;;;;;;;;;5000448;28;20182;-70
2021/12/04 05:40:18;;;;;;;21.53;13.77;;;;;;;;;;5004468;28;20238;-71
2021/12/04 05:42:44;;;;;;;20.80;12.13;;;;;;;;;;5001332;28;20182;-71
2021/12/04 05:45:23;;;;;;;26.63;15.03;;;;;;;;;;5005560;28;20232;-71
2021/12/04 05:51:16;;;;;;;24.10;14.77;;;;;;;;;;5010444;28;20210;-69
2021/12/04 05:53:21;;;;;;;23.97;13.50;;;;;;;;;;4995339;28;20272;-69
2021/12/04 05:55:54;;;;;;;26.67;15.50;;;;;;;;;;5007954;28;20242;-70
2021/12/04 05:58:28;;;;;;;25.03;14.83;;;;;;;;;;4997120;28;20187;-70
2021/12/04 06:00:55;;;;;;;24.50;15.13;;;;;;;;;;4999665;28;20217;-70
2021/12/04 06:03:22;;;;;;;25.93;15.60;;;;;;;;;;4995079;28;20202;-70
2021/12/04 06:05:48;;;;;;;24.73;14.57;;;;;;;;;;5014740;28;20726;-70
2021/12/04 06:08:13;;;;;;;30.20;16.13;;;;;;;;;;4996127;28;20336;-70
2021/12/04 06:10:40;;;;;;;28.60;15.50;;;;;;;;;;5009069;28;20232;-70
2021/12/04 06:13:06;;;;;;;26.83;15.43;;;;;;;;;;5005815;28;20182;-70
2021/12/04 06:15:32;;;;;;;28.03;15.70;;;;;;;;;;4997387;28;20258;-70
2021/12/04 06:17:57;;;;;;;27.03;14.93;;;;;;;;;;5003247;28;20657;-70
2021/12/04 06:23:08;;;;;;;27.37;14.87;;;;;;;;;;5007693;28;20232;-70
2021/12/04 06:25:34;;;;;;;33.83;14.23;;;;;;;;;;4993529;28;20187;-70
2021/12/04 06:28:00;;;;;;;27.30;16.23;;;;;;;;;;5015951;28;20198;-70
2021/12/04 06:30:26;;;;;;;26.23;15.30;;;;;;;;;;4998608;28;20190;-70
2021/12/04 06:32:53;;;;;;;31.40;16.60;;;;;;;;;;5006098;28;20258;-71
2021/12/04 06:35:20;;;;;;;29.90;15.70;;;;;;;;;;4995744;28;20245;-72
2021/12/04 06:37:48;;;;;;;32.37;16.00;;;;;;;;;;5009381;28;20639;-71
2021/12/04 06:40:14;;;;;;;37.03;16.23;;;;;;;;;;4999283;28;20244;-71
2021/12/04 06:42:41;;;;;;;30.67;15.83;;;;;;;;;;5011057;28;20205;-71
2021/12/04 06:45:07;;;;;;;30.53;15.97;;;;;;;;;;4997643;28;21791;-70
2021/12/04 06:47:33;;;;;;;30.93;15.27;;;;;;;;;;5015307;28;20308;-70
2021/12/04 06:50:06;;;;;;;32.30;15.77;;;;;;;;;;5006294;28;20195;-71
2021/12/04 06:52:32;;;;;;;32.77;16.20;;;;;;;;;;5005924;28;20282;-70
2021/12/04 06:55:00;;;;;;;31.80;16.33;;;;;;;;;;5004143;28;20293;-70
2021/12/04 06:57:27;;;;;;;35.07;15.20;;;;;;;;;;4996683;28;20278;-70
2021/12/04 06:59:54;;;;;;;31.77;14.77;;;;;;;;;;5002423;28;20270;-70
2021/12/04 07:02:20;;;;;;;36.73;16.33;;;;;;;;;;4992935;28;20223;-70
2021/12/04 07:04:46;;;;;;;34.70;16.30;;;;;;;;;;5006211;28;20187;-70
2021/12/04 07:07:12;;;;;;;40.07;16.50;;;;;;;;;;4994144;28;20235;-71
2021/12/04 07:09:38;;;;;;;38.37;16.33;;;;;;;;;;5001287;28;20195;-71
2021/12/04 07:12:05;;;;;;;39.63;17.47;;;;;;;;;;4999241;28;20223;-69
2021/12/04 07:14:31;;;;;;;37.90;16.80;;;;;;;;;;5000309;28;20218;-71
2021/12/04 07:16:58;;;;;;;32.50;15.50;;;;;;;;;;4993951;28;20773;-70
2021/12/04 07:19:23;;;;;;;34.93;16.47;;;;;;;;;;5003458;28;20600;-70
2021/12/04 07:21:49;;;;;;;45.57;18.23;;;;;;;;;;4999940;28;20197;-71
2021/12/04 07:24:15;;;;;;;41.53;17.57;;;;;;;;;;5003569;28;20193;-71
2021/12/04 07:26:41;;;;;;;37.63;17.73;;;;;;;;;;5002408;28;20202;-70
2021/12/04 07:29:07;;;;;;;32.67;15.77;;;;;;;;;;4994266;28;20345;-70
2021/12/04 07:31:33;;;;;;;40.90;17.27;;;;;;;;;;5005479;28;20345;-70
2021/12/04 07:33:59;;;;;;;42.73;17.83;;;;;;;;;;4996961;28;20194;-70
2021/12/04 07:36:25;;;;;;;44.93;17.93;;;;;;;;;;5002754;28;20204;-70
2021/12/04 07:38:51;;;;;;;42.73;18.00;;;;;;;;;;4994950;28;20209;-70
2021/12/04 07:41:16;;;;;;;42.07;18.37;;;;;;;;;;5001666;28;20183;-70
2021/12/04 07:43:42;;;;;;;36.70;17.03;;;;;;;;;;4992934;28;20190;-71
2021/12/04 07:46:08;;;;;;;46.87;18.50;;;;;;;;;;5002368;28;20179;-70
2021/12/04 07:48:33;;;;;;;43.33;18.47;;;;;;;;;;4995978;28;20213;-71
2021/12/04 07:51:01;;;;;;;42.90;18.67;;;;;;;;;;5002874;28;20226;-70
2021/12/04 07:53:27;;;;;;;40.90;17.70;;;;;;;;;;4997259;28;20187;-70
2021/12/04 07:55:53;;;;;;;49.13;19.07;;;;;;;;;;5000316;28;20210;-70
2021/12/04 07:58:19;;;;;;;43.47;18.57;;;;;;;;;;5004179;28;20199;-70
2021/12/04 08:00:44;;;;;;;45.50;19.23;;;;;;;;;;4999890;28;20575;-71
2021/12/04 08:03:09;;;;;;;42.60;17.63;;;;;;;;;;5006112;28;20183;-71
2021/12/04 08:05:35;;;;;;;42.87;17.53;;;;;;;;;;4998240;28;20236;-70
2021/12/04 08:08:02;;;;;;;43.57;18.73;;;;;;;;;;4979594;28;20278;-70
2021/12/04 08:10:28;;;;;;;37.57;17.73;;;;;;;;;;5008646;28;20229;-71
2021/12/04 08:12:53;;;;;;;43.27;17.77;;;;;;;;;;5008391;28;20221;-71
2021/12/04 08:15:19;;;;;;;39.73;18.33;;;;;;;;;;4992075;28;20609;-71
2021/12/04 08:17:45;;;;;;;37.43;18.37;;;;;;;;;;5005269;28;20194;-71
2021/12/04 08:20:13;;;;;;;41.73;18.10;;;;;;;;;;4999770;28;20262;-71
2021/12/04 08:22:39;;;;;;;46.50;19.67;;;;;;;;;;5008445;28;20190;-71
2021/12/04 08:25:05;;;;;;;39.20;18.67;;;;;;;;;;5007298;28;20339;-70
2021/12/04 08:27:31;;;;;;;44.03;20.17;;;;;;;;;;5006731;28;20237;-70
2021/12/04 08:29:56;;;;;;;47.63;21.07;;;;;;;;;;5009575;28;20294;-70
2021/12/04 08:32:23;;;;;;;49.47;20.80;;;;;;;;;;4998402;28;20670;-71
2021/12/04 08:34:49;;;;;;;52.80;22.37;;;;;;;;;;5008894;28;20198;-70
2021/12/04 08:37:15;;;;;;;60.73;22.67;;;;;;;;;;4996452;28;21332;-71
2021/12/04 08:39:40;;;;;;;53.20;22.70;;;;;;;;;;5012790;28;20185;-71
2021/12/04 08:42:06;;;;;;;53.73;23.60;;;;;;;;;;4997497;28;20241;-71
2021/12/04 08:44:32;;;;;;;59.40;25.27;;;;;;;;;;5011814;28;20188;-71
2021/12/04 08:46:58;;;;;;;62.73;27.00;;;;;;;;;;4998766;28;20187;-71
2021/12/04 08:49:23;;;;;;;65.27;26.80;;;;;;;;;;5010809;28;20202;-71
2021/12/04 08:51:49;;;;;;;76.53;28.50;;;;;;;;;;4998754;28;20217;-71
2021/12/04 08:54:14;;;;;;;73.53;29.27;;;;;;;;;;5005400;28;20186;-71
2021/12/04 08:56:40;;;;;;;67.60;28.83;;;;;;;;;;4995679;28;20196;-71
2021/12/04 08:59:07;;;;;;;83.30;30.17;;;;;;;;;;4995913;28;20244;-71
2021/12/04 09:01:37;;;;;;;80.60;30.47;;;;;;;;;;4998129;28;20190;-71
2021/12/04 09:04:19;;;;;;;68.57;29.43;;;;;;;;;;4994332;28;20198;-70
2021/12/04 09:06:45;;;;;;;74.43;28.87;;;;;;;;;;4998086;28;20249;-71
2021/12/04 09:09:12;;;;;;;78.70;28.70;;;;;;;;;;4983936;28;20653;-70
2021/12/04 09:11:44;;;;;;;81.20;30.63;;;;;;;;;;4995300;28;20193;-71
2021/12/04 09:14:12;;;;;;;79.70;32.77;;;;;;;;;;4986724;28;20677;-70
2021/12/04 09:16:38;;;;;;;80.07;30.47;;;;;;;;;;5000505;28;20230;-71
2021/12/04 09:19:04;;;;;;;89.63;31.50;;;;;;;;;;4990436;28;20625;-71
2021/12/04 09:21:29;;;;;;;85.67;31.77;;;;;;;;;;4997846;28;20281;-70
2021/12/04 09:24:16;;;;;;;85.27;32.63;;;;;;;;;;4990950;28;20567;-70
2021/12/04 09:29:36;;;;;;;79.70;31.23;;;;;;;;;;4988735;28;20215;-70
2021/12/04 09:59:26;;;;;;;87.77;33.10;;;;;;;;;;4999104;28;20221;-70
2021/12/04 10:05:00;;;;;;;71.57;29.67;;;;;;;;;;5000399;28;20649;-70
2021/12/04 10:23:46;;;;;;;81.03;30.70;;;;;;;;;;4996495;28;20198;-70
2021/12/04 10:32:34;;;;;;;71.67;29.73;;;;;;;;;;4990029;28;20260;-71
2021/12/04 10:35:08;;;;;;;73.43;29.53;;;;;;;;;;4997003;28;20627;-71
2021/12/04 10:37:37;;;;;;;77.57;31.03;;;;;;;;;;4988039;28;20194;-70
2021/12/04 10:40:08;;;;;;;84.27;31.37;;;;;;;;;;4997829;28;20191;-70
2021/12/04 10:42:48;;;;;;;70.47;29.13;;;;;;;;;;4987498;28;20202;-71
2021/12/04 10:45:14;;;;;;;74.63;31.13;;;;;;;;;;4995946;28;20229;-71
2021/12/04 10:47:53;;;;;;;78.63;32.27;;;;;;;;;;4989775;28;20687;-70
2021/12/04 10:50:43;;;;;;;73.67;31.77;;;;;;;;;;4994733;28;20247;-70
2021/12/04 10:53:14;;;;;;;64.27;28.93;;;;;;;;;;4985777;28;20347;-70
2021/12/04 11:01:30;;;;;;;73.37;29.40;;;;;;;;;;4996828;28;20187;-70
2021/12/04 11:20:59;;;;;;;63.47;28.77;;;;;;;;;;4986556;28;20618;-70
2021/12/04 11:26:17;;;;;;;62.63;28.90;;;;;;;;;;4986571;28;20205;-70
2021/12/04 11:39:42;;;;;;;58.43;27.10;;;;;;;;;;4990684;28;20207;-71
2021/12/04 11:42:22;;;;;;;58.70;27.60;;;;;;;;;;4982800;28;20221;-70
2021/12/04 11:44:57;;;;;;;54.90;27.37;;;;;;;;;;4993411;28;20263;-70
2021/12/04 11:47:23;;;;;;;65.17;29.47;;;;;;;;;;4981541;28;20225;-70
2021/12/04 11:49:49;;;;;;;63.27;28.13;;;;;;;;;;4993952;28;20485;-70
2021/12/04 11:52:18;;;;;;;62.00;26.80;;;;;;;;;;4987420;28;20557;-70
2021/12/04 11:54:51;;;;;;;61.40;26.83;;;;;;;;;;4996008;28;20337;-70
2021/12/04 11:57:29;;;;;;;59.90;28.03;;;;;;;;;;4991983;28;20676;-70
2021/12/04 11:59:54;;;;;;;62.17;26.90;;;;;;;;;;4996399;28;20237;-70
2021/12/04 12:02:23;;;;;;;54.63;26.97;;;;;;;;;;4992011;28;20239;-71
2021/12/04 12:04:52;;;;;;;58.03;27.47;;;;;;;;;;4999821;28;20189;-71
2021/12/04 12:07:24;;;;;;;56.27;27.67;;;;;;;;;;4992610;28;20194;-71
2021/12/04 12:10:09;;;;;;;57.60;26.10;;;;;;;;;;4999163;28;20256;-70
2021/12/04 12:12:37;;;;;;;63.40;27.67;;;;;;;;;;4992853;28;20198;-70
2021/12/04 12:15:16;;;;;;;60.60;25.70;;;;;;;;;;4997734;28;20198;-70
2021/12/04 12:17:42;;;;;;;57.43;24.83;;;;;;;;;;4990368;28;20868;-70
2021/12/04 12:20:15;;;;;;;52.90;25.30;;;;;;;;;;4998552;28;20187;-70
2021/12/04 12:22:52;;;;;;;56.83;25.40;;;;;;;;;;4992144;28;20201;-70
2021/12/04 12:34:00;;;;;;;48.40;23.83;;;;;;;;;;4992971;28;20210;-70
2021/12/04 12:36:29;;;;;;;45.43;23.07;;;;;;;;;;4999844;28;20182;-70
2021/12/04 12:39:16;;;;;;;46.20;23.10;;;;;;;;;;4988330;28;20545;-70
2021/12/04 12:41:45;;;;;;;43.80;23.23;;;;;;;;;;4999407;28;20191;-70
2021/12/04 12:44:17;;;;;;;42.47;22.90;;;;;;;;;;4986408;28;20253;-70
2021/12/04 12:47:15;;;;;;;48.87;24.13;;;;;;;;;;5002830;28;20247;-71
2021/12/04 12:49:43;;;;;;;41.77;21.93;;;;;;;;;;4965629;28;20233;-71
2021/12/04 12:52:23;;;;;;;41.20;21.40;;;;;;;;;;5001539;28;20202;-71
2021/12/04 12:55:00;;;;;;;46.67;23.47;;;;;;;;;;4988415;28;20616;-71
2021/12/04 12:57:28;;;;;;;44.87;23.30;;;;;;;;;;4999017;28;20260;-71
2021/12/04 13:14:07;;;;;;;38.63;21.87;;;;;;;;;;4999755;28;20185;-71
2021/12/04 13:16:33;;;;;;;39.13;20.20;;;;;;;;;;4992109;28;20230;-70
2021/12/04 13:19:04;;;;;;;34.10;19.70;;;;;;;;;;4998950;28;20190;-70
2021/12/04 13:21:32;;;;;;;31.57;19.47;;;;;;;;;;4990958;28;20323;-69
2021/12/04 13:23:58;;;;;;;31.63;19.93;;;;;;;;;;4998332;28;20213;-70
2021/12/04 13:26:35;;;;;;;30.70;19.83;;;;;;;;;;4986953;28;20191;-71
2021/12/04 13:29:03;;;;;;;31.67;19.23;;;;;;;;;;4998809;28;20293;-71
2021/12/04 13:31:29;;;;;;;26.67;19.13;;;;;;;;;;4987688;28;20202;-71
2021/12/04 13:33:55;;;;;;;29.70;19.17;;;;;;;;;;4999089;28;20190;-71
2021/12/04 13:36:28;;;;;;;28.87;20.23;;;;;;;;;;4991582;28;20237;-70
2021/12/04 13:39:13;;;;;;;28.70;19.83;;;;;;;;;;4997529;28;20174;-70
2021/12/04 13:41:43;;;;;;;33.20;20.90;;;;;;;;;;4988577;28;20207;-71
2021/12/04 13:44:11;;;;;;;30.57;19.93;;;;;;;;;;4996090;28;20179;-70
2021/12/04 13:46:49;;;;;;;29.37;20.40;;;;;;;;;;4995099;28;20549;-71
2021/12/04 13:49:21;;;;;;;29.07;19.67;;;;;;;;;;4989927;28;20242;-70
2021/12/04 13:51:55;;;;;;;29.80;20.43;;;;;;;;;;4998437;28;20194;-70
2021/12/04 13:54:23;;;;;;;34.37;21.57;;;;;;;;;;4989642;28;20712;-70
2021/12/04 13:56:48;;;;;;;30.83;21.33;;;;;;;;;;4997998;28;20210;-71
2021/12/04 13:59:14;;;;;;;29.23;20.77;;;;;;;;;;4989227;28;20191;-71
2021/12/04 14:01:42;;;;;;;31.23;20.27;;;;;;;;;;4997165;28;20206;-71
2021/12/04 14:04:16;;;;;;;32.00;21.30;;;;;;;;;;4988300;28;20253;-71
2021/12/04 14:06:48;;;;;;;34.20;22.07;;;;;;;;;;4993994;28;20553;-71
2021/12/04 14:09:13;;;;;;;35.37;21.93;;;;;;;;;;4988303;28;20225;-71
2021/12/04 14:11:41;;;;;;;34.40;22.80;;;;;;;;;;4998186;28;20231;-75
2021/12/04 14:14:14;;;;;;;35.73;21.93;;;;;;;;;;4989507;28;20191;-74
2021/12/04 14:16:41;;;;;;;33.37;22.07;;;;;;;;;;4998007;28;20234;-73
2021/12/04 14:19:16;;;;;;;32.00;22.50;;;;;;;;;;4989544;28;20189;-74
2021/12/04 14:22:08;;;;;;;32.57;22.57;;;;;;;;;;4997812;28;20191;-74
2021/12/04 14:24:43;;;;;;;33.17;21.30;;;;;;;;;;4985449;28;20677;-74
2021/12/04 14:27:17;;;;;;;36.33;22.83;;;;;;;;;;4997356;28;20193;-73
2021/12/04 14:29:47;;;;;;;35.73;24.10;;;;;;;;;;4985069;28;20294;-74
2021/12/04 14:32:13;;;;;;;34.13;23.33;;;;;;;;;;4991776;28;20277;-73
2021/12/04 14:34:38;;;;;;;36.87;22.87;;;;;;;;;;4983782;28;21199;-73
2021/12/04 14:37:14;;;;;;;35.40;22.50;;;;;;;;;;4997145;28;20183;-73
2021/12/04 14:39:45;;;;;;;32.83;22.23;;;;;;;;;;4994222;28;20237;-73
2021/12/04 14:42:15;;;;;;;35.07;22.73;;;;;;;;;;4998123;28;20182;-72
2021/12/04 14:44:46;;;;;;;36.67;23.70;;;;;;;;;;4998256;28;20576;-73
2021/12/04 14:47:11;;;;;;;33.90;23.30;;;;;;;;;;4988887;28;20329;-73
2021/12/04 14:49:40;;;;;;;36.43;22.77;;;;;;;;;;4996157;28;20768;-74
2021/12/04 14:52:05;;;;;;;32.43;23.10;;;;;;;;;;4989893;28;20187;-75
2021/12/04 14:54:32;;;;;;;34.93;22.60;;;;;;;;;;4995961;28;20202;-73
2021/12/04 14:57:01;;;;;;;35.17;24.07;;;;;;;;;;4989984;28;20580;-74
2021/12/04 14:59:32;;;;;;;33.63;22.87;;;;;;;;;;4995747;28;20194;-74
2021/12/04 15:01:57;;;;;;;35.07;23.57;;;;;;;;;;4988039;28;20182;-73
2021/12/04 15:04:23;;;;;;;33.93;22.93;;;;;;;;;;4996931;28;20554;-73
2021/12/04 15:06:48;;;;;;;39.17;24.00;;;;;;;;;;4990123;28;20195;-72
2021/12/04 15:09:15;;;;;;;31.87;21.87;;;;;;;;;;4996471;28;20214;-73
2021/12/04 15:11:49;;;;;;;40.20;24.17;;;;;;;;;;4990145;28;20194;-73
2021/12/04 15:14:21;;;;;;;34.07;21.67;;;;;;;;;;4996693;28;20300;-74
2021/12/04 15:16:53;;;;;;;34.43;22.27;;;;;;;;;;4988462;28;20256;-73
2021/12/04 15:19:38;;;;;;;35.93;23.27;;;;;;;;;;4995973;28;20514;-72
2021/12/04 15:22:05;;;;;;;35.77;23.50;;;;;;;;;;4987912;28;20287;-73
2021/12/04 15:24:38;;;;;;;39.30;24.57;;;;;;;;;;4996399;28;20190;-73
2021/12/04 15:27:10;;;;;;;39.53;24.37;;;;;;;;;;4996645;28;20282;-74
2021/12/04 15:29:38;;;;;;;39.37;23.97;;;;;;;;;;4995501;28;20653;-73
2021/12/04 15:32:10;;;;;;;38.70;24.67;;;;;;;;;;4995220;28;20211;-74
2021/12/04 15:34:51;;;;;;;35.07;23.47;;;;;;;;;;4986418;28;20202;-74
2021/12/04 15:37:38;;;;;;;38.77;24.50;;;;;;;;;;4993138;28;20187;-74
2021/12/04 15:40:06;;;;;;;34.80;22.90;;;;;;;;;;4989120;28;20190;-74
2021/12/04 15:45:52;;;;;;;38.70;23.63;;;;;;;;;;4992729;28;20448;-76
2021/12/04 15:50:51;;;;;;;36.80;23.40;;;;;;;;;;4992796;28;20584;-74
2021/12/04 15:53:17;;;;;;;36.50;23.53;;;;;;;;;;4996062;28;20182;-75
2021/12/04 15:55:49;;;;;;;37.00;24.43;;;;;;;;;;4986540;28;20592;-75
2021/12/04 15:58:17;;;;;;;37.33;23.90;;;;;;;;;;4994787;28;20175;-75
2021/12/04 16:00:46;;;;;;;39.93;24.90;;;;;;;;;;4986802;28;20649;-76
2021/12/04 16:03:16;;;;;;;36.73;23.23;;;;;;;;;;4992020;28;20186;-75
2021/12/04 16:05:49;;;;;;;38.37;23.70;;;;;;;;;;4989557;28;20221;-75
2021/12/04 16:08:17;;;;;;;46.57;24.83;;;;;;;;;;4998547;28;20210;-75
2021/12/04 16:10:45;;;;;;;39.97;24.10;;;;;;;;;;4986969;28;20197;-75
2021/12/04 16:13:14;;;;;;;43.37;25.77;;;;;;;;;;4997010;28;20199;-75
2021/12/04 16:15:41;;;;;;;44.57;26.03;;;;;;;;;;4985510;28;20222;-74
2021/12/04 16:18:07;;;;;;;41.43;24.63;;;;;;;;;;4993886;28;20703;-73
2021/12/04 16:20:34;;;;;;;39.73;25.13;;;;;;;;;;4987408;28;20197;-74
2021/12/04 16:23:02;;;;;;;42.50;25.47;;;;;;;;;;4996916;28;20356;-75
2021/12/04 16:25:36;;;;;;;39.67;23.13;;;;;;;;;;4987758;28;20252;-75
2021/12/04 16:33:37;;;;;;;36.87;23.03;;;;;;;;;;4999063;28;20195;-75
2021/12/04 16:38:34;;;;;;;41.07;24.40;;;;;;;;;;4998154;28;20198;-76
2021/12/04 16:41:04;;;;;;;35.80;22.07;;;;;;;;;;4997967;28;20202;-75
2021/12/04 16:43:34;;;;;;;37.93;22.97;;;;;;;;;;4990447;28;20282;-75
2021/12/04 16:46:08;;;;;;;37.20;23.73;;;;;;;;;;4997432;28;20191;-76
2021/12/04 16:48:37;;;;;;;34.97;21.80;;;;;;;;;;4988713;28;20219;-75
2021/12/04 16:58:56;;;;;;;35.67;22.17;;;;;;;;;;4991782;28;20642;-76
2021/12/04 17:01:22;;;;;;;34.93;21.33;;;;;;;;;;4999021;28;20679;-76
2021/12/04 17:03:48;;;;;;;32.87;21.53;;;;;;;;;;4988337;28;20198;-75
2021/12/04 17:06:13;;;;;;;36.87;20.87;;;;;;;;;;4999000;28;20195;-75
2021/12/04 17:08:38;;;;;;;31.53;19.50;;;;;;;;;;4990149;28;20225;-75
2021/12/04 17:11:04;;;;;;;32.40;19.53;;;;;;;;;;5000217;28;20195;-75
2021/12/04 17:13:31;;;;;;;29.00;18.63;;;;;;;;;;4991180;28;20609;-75
2021/12/04 17:15:57;;;;;;;32.20;19.20;;;;;;;;;;5000256;28;20229;-74
2021/12/04 17:18:25;;;;;;;32.07;19.13;;;;;;;;;;4987508;28;20203;-73
2021/12/04 17:20:52;;;;;;;31.17;18.63;;;;;;;;;;4998501;28;20225;-73
2021/12/04 17:23:19;;;;;;;29.93;18.20;;;;;;;;;;5000390;28;20625;-73
2021/12/04 17:25:45;;;;;;;29.30;18.10;;;;;;;;;;4989814;28;20199;-73
2021/12/04 17:28:12;;;;;;;31.50;18.73;;;;;;;;;;5000117;28;20666;-73
2021/12/04 17:30:40;;;;;;;30.50;18.43;;;;;;;;;;4990618;28;20274;-74
2021/12/04 17:33:06;;;;;;;30.00;17.97;;;;;;;;;;5000225;28;20284;-73
2021/12/04 17:35:34;;;;;;;32.47;18.80;;;;;;;;;;4990831;28;20817;-75
2021/12/04 17:38:00;;;;;;;31.50;18.73;;;;;;;;;;4996645;28;20199;-74